sensor_id;sensor_type;location;lat;lon;timestamp;P1;durP1;ratioP1;P2;durP2;ratioP2
57567;SDS011;43403;51.948;5.922;2023-07-29T00:00:09;11.70;;;7.60;;
57567;SDS011;43403;51.948;5.922;2023-07-29T00:02:39;10.27;;;7.35;;
57567;SDS011;43403;51.948;5.922;2023-07-29T00:05:06;9.05;;;6.93;;
57567;SDS011;43403;51.948;5.922;2023-07-29T00:07:32;10.63;;;7.25;;
57567;SDS011;43403;51.948;5.922;2023-07-29T00:09:59;8.73;;;6.43;;
57567;SDS011;43403;51.948;5.922;2023-07-29T00:12:25;9.32;;;6.85;;
57567;SDS011;43403;51.948;5.922;2023-07-29T00:14:52;9.18;;;6.90;;
57567;SDS011;43403;51.948;5.922;2023-07-29T00:17:18;9.95;;;6.80;;
57567;SDS011;43403;51.948;5.922;2023-07-29T00:19:46;9.50;;;7.40;;
57567;SDS011;43403;51.948;5.922;2023-07-29T00:22:13;11.07;;;6.88;;
57567;SDS011;43403;51.948;5.922;2023-07-29T00:24:39;10.95;;;6.47;;
57567;SDS011;43403;51.948;5.922;2023-07-29T00:27:06;8.00;;;6.13;;
57567;SDS011;43403;51.948;5.922;2023-07-29T00:29:33;10.85;;;6.85;;
57567;SDS011;43403;51.948;5.922;2023-07-29T00:31:59;10.95;;;7.13;;
57567;SDS011;43403;51.948;5.922;2023-07-29T00:34:26;7.93;;;6.80;;
57567;SDS011;43403;51.948;5.922;2023-07-29T00:36:53;11.80;;;8.95;;
57567;SDS011;43403;51.948;5.922;2023-07-29T00:39:19;10.48;;;7.68;;
57567;SDS011;43403;51.948;5.922;2023-07-29T00:41:45;10.18;;;7.40;;
57567;SDS011;43403;51.948;5.922;2023-07-29T00:44:12;11.77;;;7.53;;
57567;SDS011;43403;51.948;5.922;2023-07-29T00:46:39;9.68;;;6.82;;
57567;SDS011;43403;51.948;5.922;2023-07-29T00:49:07;10.30;;;6.68;;
57567;SDS011;43403;51.948;5.922;2023-07-29T00:51:34;10.05;;;6.25;;
57567;SDS011;43403;51.948;5.922;2023-07-29T00:54:01;7.32;;;5.57;;
57567;SDS011;43403;51.948;5.922;2023-07-29T00:56:28;7.37;;;5.60;;
57567;SDS011;43403;51.948;5.922;2023-07-29T00:58:54;10.00;;;6.93;;
57567;SDS011;43403;51.948;5.922;2023-07-29T01:01:25;10.15;;;7.07;;
57567;SDS011;43403;51.948;5.922;2023-07-29T01:03:52;11.95;;;6.78;;
57567;SDS011;43403;51.948;5.922;2023-07-29T01:08:55;10.68;;;7.13;;
57567;SDS011;43403;51.948;5.922;2023-07-29T01:12:17;10.10;;;6.05;;
57567;SDS011;43403;51.948;5.922;2023-07-29T01:17:00;9.68;;;6.07;;
57567;SDS011;43403;51.948;5.922;2023-07-29T01:22:33;13.25;;;7.75;;
57567;SDS011;43403;51.948;5.922;2023-07-29T01:25:01;12.07;;;7.05;;
57567;SDS011;43403;51.948;5.922;2023-07-29T01:27:29;10.57;;;7.97;;
57567;SDS011;43403;51.948;5.922;2023-07-29T01:29:56;10.05;;;7.13;;
57567;SDS011;43403;51.948;5.922;2023-07-29T01:35:24;8.52;;;6.57;;
57567;SDS011;43403;51.948;5.922;2023-07-29T01:37:55;10.80;;;7.05;;
57567;SDS011;43403;51.948;5.922;2023-07-29T01:40:26;8.48;;;6.57;;
57567;SDS011;43403;51.948;5.922;2023-07-29T01:42:54;11.75;;;7.78;;
57567;SDS011;43403;51.948;5.922;2023-07-29T01:45:24;10.50;;;7.65;;
57567;SDS011;43403;51.948;5.922;2023-07-29T01:47:54;8.23;;;7.00;;
57567;SDS011;43403;51.948;5.922;2023-07-29T01:50:20;10.73;;;7.05;;
57567;SDS011;43403;51.948;5.922;2023-07-29T01:52:47;9.00;;;7.20;;
57567;SDS011;43403;51.948;5.922;2023-07-29T01:55:13;11.80;;;7.70;;
57567;SDS011;43403;51.948;5.922;2023-07-29T01:57:40;10.52;;;7.72;;
57567;SDS011;43403;51.948;5.922;2023-07-29T02:00:07;10.77;;;8.00;;
57567;SDS011;43403;51.948;5.922;2023-07-29T02:02:34;11.02;;;6.97;;
57567;SDS011;43403;51.948;5.922;2023-07-29T02:05:00;11.38;;;6.85;;
57567;SDS011;43403;51.948;5.922;2023-07-29T02:07:27;11.45;;;7.07;;
57567;SDS011;43403;51.948;5.922;2023-07-29T02:09:54;9.88;;;7.38;;
57567;SDS011;43403;51.948;5.922;2023-07-29T02:12:20;9.68;;;7.47;;
57567;SDS011;43403;51.948;5.922;2023-07-29T02:14:47;10.77;;;7.55;;
57567;SDS011;43403;51.948;5.922;2023-07-29T02:17:13;11.52;;;7.85;;
57567;SDS011;43403;51.948;5.922;2023-07-29T02:19:40;10.32;;;8.13;;
57567;SDS011;43403;51.948;5.922;2023-07-29T02:22:06;11.60;;;8.23;;
57567;SDS011;43403;51.948;5.922;2023-07-29T02:24:33;9.88;;;7.90;;
57567;SDS011;43403;51.948;5.922;2023-07-29T02:26:59;11.70;;;9.00;;
57567;SDS011;43403;51.948;5.922;2023-07-29T02:29:26;13.15;;;9.75;;
57567;SDS011;43403;51.948;5.922;2023-07-29T02:31:52;13.25;;;9.23;;
57567;SDS011;43403;51.948;5.922;2023-07-29T02:34:19;13.38;;;10.27;;
57567;SDS011;43403;51.948;5.922;2023-07-29T02:36:45;12.73;;;9.70;;
57567;SDS011;43403;51.948;5.922;2023-07-29T02:39:12;15.00;;;10.30;;
57567;SDS011;43403;51.948;5.922;2023-07-29T02:41:39;20.73;;;10.93;;
57567;SDS011;43403;51.948;5.922;2023-07-29T02:44:05;13.02;;;9.95;;
57567;SDS011;43403;51.948;5.922;2023-07-29T02:46:32;16.67;;;10.50;;
57567;SDS011;43403;51.948;5.922;2023-07-29T02:49:01;15.50;;;9.33;;
57567;SDS011;43403;51.948;5.922;2023-07-29T02:51:29;13.90;;;9.65;;
57567;SDS011;43403;51.948;5.922;2023-07-29T02:53:56;12.93;;;8.10;;
57567;SDS011;43403;51.948;5.922;2023-07-29T02:56:23;13.55;;;9.15;;
57567;SDS011;43403;51.948;5.922;2023-07-29T02:58:50;12.35;;;8.55;;
57567;SDS011;43403;51.948;5.922;2023-07-29T03:01:19;13.70;;;9.13;;
57567;SDS011;43403;51.948;5.922;2023-07-29T03:03:46;9.68;;;7.45;;
57567;SDS011;43403;51.948;5.922;2023-07-29T03:06:13;16.27;;;8.98;;
57567;SDS011;43403;51.948;5.922;2023-07-29T03:08:40;11.77;;;8.60;;
57567;SDS011;43403;51.948;5.922;2023-07-29T03:11:08;16.70;;;8.30;;
57567;SDS011;43403;51.948;5.922;2023-07-29T03:13:43;12.55;;;7.57;;
57567;SDS011;43403;51.948;5.922;2023-07-29T03:16:13;10.88;;;7.38;;
57567;SDS011;43403;51.948;5.922;2023-07-29T03:18:42;9.32;;;7.18;;
57567;SDS011;43403;51.948;5.922;2023-07-29T03:21:10;10.85;;;6.53;;
57567;SDS011;43403;51.948;5.922;2023-07-29T03:23:37;8.13;;;6.50;;
57567;SDS011;43403;51.948;5.922;2023-07-29T03:26:05;9.48;;;6.30;;
57567;SDS011;43403;51.948;5.922;2023-07-29T03:28:38;10.23;;;6.10;;
57567;SDS011;43403;51.948;5.922;2023-07-29T03:31:06;7.53;;;5.18;;
57567;SDS011;43403;51.948;5.922;2023-07-29T03:33:33;10.65;;;5.55;;
57567;SDS011;43403;51.948;5.922;2023-07-29T03:36:00;8.85;;;5.30;;
57567;SDS011;43403;51.948;5.922;2023-07-29T03:38:27;9.20;;;5.18;;
57567;SDS011;43403;51.948;5.922;2023-07-29T03:40:53;8.18;;;5.45;;
57567;SDS011;43403;51.948;5.922;2023-07-29T03:43:20;8.40;;;4.78;;
57567;SDS011;43403;51.948;5.922;2023-07-29T03:45:47;8.05;;;4.43;;
57567;SDS011;43403;51.948;5.922;2023-07-29T03:48:13;8.13;;;4.45;;
57567;SDS011;43403;51.948;5.922;2023-07-29T03:50:40;7.43;;;4.55;;
57567;SDS011;43403;51.948;5.922;2023-07-29T03:53:06;7.60;;;4.90;;
57567;SDS011;43403;51.948;5.922;2023-07-29T03:55:33;6.93;;;3.88;;
57567;SDS011;43403;51.948;5.922;2023-07-29T03:58:00;7.15;;;4.10;;
57567;SDS011;43403;51.948;5.922;2023-07-29T04:00:27;5.97;;;3.78;;
57567;SDS011;43403;51.948;5.922;2023-07-29T04:02:53;8.02;;;4.03;;
57567;SDS011;43403;51.948;5.922;2023-07-29T04:05:20;4.85;;;3.40;;
57567;SDS011;43403;51.948;5.922;2023-07-29T04:07:46;7.40;;;4.18;;
57567;SDS011;43403;51.948;5.922;2023-07-29T04:10:13;8.93;;;4.35;;
57567;SDS011;43403;51.948;5.922;2023-07-29T04:12:40;6.13;;;3.75;;
57567;SDS011;43403;51.948;5.922;2023-07-29T04:15:07;7.60;;;3.22;;
57567;SDS011;43403;51.948;5.922;2023-07-29T04:17:33;7.38;;;3.38;;
57567;SDS011;43403;51.948;5.922;2023-07-29T04:20:00;6.25;;;3.20;;
57567;SDS011;43403;51.948;5.922;2023-07-29T04:22:27;7.00;;;3.65;;
57567;SDS011;43403;51.948;5.922;2023-07-29T04:24:54;6.20;;;3.05;;
57567;SDS011;43403;51.948;5.922;2023-07-29T04:27:21;6.13;;;3.00;;
57567;SDS011;43403;51.948;5.922;2023-07-29T04:29:47;4.47;;;2.65;;
57567;SDS011;43403;51.948;5.922;2023-07-29T04:32:14;6.28;;;3.00;;
57567;SDS011;43403;51.948;5.922;2023-07-29T04:34:40;5.85;;;2.80;;
57567;SDS011;43403;51.948;5.922;2023-07-29T04:37:06;6.32;;;2.97;;
57567;SDS011;43403;51.948;5.922;2023-07-29T04:39:33;3.53;;;2.53;;
57567;SDS011;43403;51.948;5.922;2023-07-29T04:42:00;5.65;;;2.80;;
57567;SDS011;43403;51.948;5.922;2023-07-29T04:44:27;5.78;;;2.55;;
57567;SDS011;43403;51.948;5.922;2023-07-29T04:46:53;6.90;;;2.85;;
57567;SDS011;43403;51.948;5.922;2023-07-29T04:49:20;5.95;;;2.70;;
57567;SDS011;43403;51.948;5.922;2023-07-29T04:51:46;6.80;;;2.63;;
57567;SDS011;43403;51.948;5.922;2023-07-29T04:54:13;5.03;;;2.65;;
57567;SDS011;43403;51.948;5.922;2023-07-29T04:56:39;4.85;;;2.28;;
57567;SDS011;43403;51.948;5.922;2023-07-29T04:59:06;4.85;;;2.60;;
57567;SDS011;43403;51.948;5.922;2023-07-29T05:01:34;4.13;;;2.70;;
57567;SDS011;43403;51.948;5.922;2023-07-29T05:04:01;2.83;;;2.05;;
57567;SDS011;43403;51.948;5.922;2023-07-29T05:06:28;5.13;;;2.47;;
57567;SDS011;43403;51.948;5.922;2023-07-29T05:08:57;4.10;;;2.15;;
57567;SDS011;43403;51.948;5.922;2023-07-29T05:11:24;7.28;;;2.75;;
57567;SDS011;43403;51.948;5.922;2023-07-29T05:13:51;4.47;;;2.70;;
57567;SDS011;43403;51.948;5.922;2023-07-29T05:16:18;4.65;;;2.63;;
57567;SDS011;43403;51.948;5.922;2023-07-29T05:18:44;4.53;;;2.28;;
57567;SDS011;43403;51.948;5.922;2023-07-29T05:21:11;4.55;;;2.53;;
57567;SDS011;43403;51.948;5.922;2023-07-29T05:23:40;3.75;;;2.40;;
57567;SDS011;43403;51.948;5.922;2023-07-29T05:26:07;5.80;;;2.63;;
57567;SDS011;43403;51.948;5.922;2023-07-29T05:28:33;6.38;;;3.25;;
57567;SDS011;43403;51.948;5.922;2023-07-29T05:31:00;4.03;;;2.35;;
57567;SDS011;43403;51.948;5.922;2023-07-29T05:33:28;6.00;;;2.90;;
57567;SDS011;43403;51.948;5.922;2023-07-29T05:35:55;5.35;;;3.22;;
57567;SDS011;43403;51.948;5.922;2023-07-29T05:38:21;4.78;;;2.88;;
57567;SDS011;43403;51.948;5.922;2023-07-29T05:40:48;5.32;;;3.00;;
57567;SDS011;43403;51.948;5.922;2023-07-29T05:43:15;7.15;;;3.45;;
57567;SDS011;43403;51.948;5.922;2023-07-29T05:45:41;3.67;;;3.03;;
57567;SDS011;43403;51.948;5.922;2023-07-29T05:48:08;6.40;;;3.90;;
57567;SDS011;43403;51.948;5.922;2023-07-29T05:50:35;5.60;;;3.30;;
57567;SDS011;43403;51.948;5.922;2023-07-29T05:53:03;5.82;;;3.65;;
57567;SDS011;43403;51.948;5.922;2023-07-29T05:55:30;8.65;;;4.40;;
57567;SDS011;43403;51.948;5.922;2023-07-29T05:57:56;6.85;;;4.13;;
57567;SDS011;43403;51.948;5.922;2023-07-29T06:00:24;4.95;;;3.58;;
57567;SDS011;43403;51.948;5.922;2023-07-29T06:02:50;7.65;;;3.90;;
57567;SDS011;43403;51.948;5.922;2023-07-29T06:05:17;7.85;;;3.95;;
57567;SDS011;43403;51.948;5.922;2023-07-29T06:07:43;8.15;;;4.13;;
57567;SDS011;43403;51.948;5.922;2023-07-29T06:10:16;7.03;;;3.83;;
57567;SDS011;43403;51.948;5.922;2023-07-29T06:12:45;6.93;;;3.80;;
57567;SDS011;43403;51.948;5.922;2023-07-29T06:15:12;6.82;;;4.00;;
57567;SDS011;43403;51.948;5.922;2023-07-29T06:17:40;7.90;;;4.38;;
57567;SDS011;43403;51.948;5.922;2023-07-29T06:20:07;7.22;;;4.10;;
57567;SDS011;43403;51.948;5.922;2023-07-29T06:22:34;9.25;;;4.38;;
57567;SDS011;43403;51.948;5.922;2023-07-29T06:25:00;7.35;;;4.65;;
57567;SDS011;43403;51.948;5.922;2023-07-29T06:27:27;8.73;;;4.30;;
57567;SDS011;43403;51.948;5.922;2023-07-29T06:29:54;11.70;;;4.13;;
57567;SDS011;43403;51.948;5.922;2023-07-29T06:32:20;8.40;;;4.00;;
57567;SDS011;43403;51.948;5.922;2023-07-29T06:34:47;7.78;;;4.60;;
57567;SDS011;43403;51.948;5.922;2023-07-29T06:37:14;8.60;;;4.38;;
57567;SDS011;43403;51.948;5.922;2023-07-29T06:39:40;7.35;;;4.65;;
57567;SDS011;43403;51.948;5.922;2023-07-29T06:42:07;8.73;;;4.40;;
57567;SDS011;43403;51.948;5.922;2023-07-29T06:44:34;7.30;;;4.55;;
57567;SDS011;43403;51.948;5.922;2023-07-29T06:47:00;9.20;;;4.72;;
57567;SDS011;43403;51.948;5.922;2023-07-29T06:49:27;8.95;;;4.88;;
57567;SDS011;43403;51.948;5.922;2023-07-29T06:51:53;10.60;;;4.03;;
57567;SDS011;43403;51.948;5.922;2023-07-29T06:54:23;6.60;;;4.07;;
57567;SDS011;43403;51.948;5.922;2023-07-29T06:56:50;8.45;;;4.53;;
57567;SDS011;43403;51.948;5.922;2023-07-29T06:59:17;7.45;;;4.15;;
57567;SDS011;43403;51.948;5.922;2023-07-29T07:01:43;7.18;;;4.47;;
57567;SDS011;43403;51.948;5.922;2023-07-29T07:04:10;8.18;;;3.88;;
57567;SDS011;43403;51.948;5.922;2023-07-29T07:06:36;8.35;;;4.15;;
57567;SDS011;43403;51.948;5.922;2023-07-29T07:09:03;7.82;;;5.00;;
57567;SDS011;43403;51.948;5.922;2023-07-29T07:11:30;8.35;;;4.85;;
57567;SDS011;43403;51.948;5.922;2023-07-29T07:13:56;15.88;;;4.60;;
57567;SDS011;43403;51.948;5.922;2023-07-29T07:16:23;8.82;;;4.25;;
57567;SDS011;43403;51.948;5.922;2023-07-29T07:18:50;8.27;;;4.78;;
57567;SDS011;43403;51.948;5.922;2023-07-29T07:21:16;9.60;;;5.20;;
57567;SDS011;43403;51.948;5.922;2023-07-29T07:23:43;9.93;;;5.90;;
57567;SDS011;43403;51.948;5.922;2023-07-29T07:26:09;6.38;;;4.88;;
57567;SDS011;43403;51.948;5.922;2023-07-29T07:28:36;7.80;;;5.93;;
57567;SDS011;43403;51.948;5.922;2023-07-29T07:31:02;7.75;;;5.35;;
57567;SDS011;43403;51.948;5.922;2023-07-29T07:33:29;8.98;;;5.80;;
57567;SDS011;43403;51.948;5.922;2023-07-29T07:35:56;10.15;;;6.25;;
57567;SDS011;43403;51.948;5.922;2023-07-29T07:38:22;9.18;;;6.10;;
57567;SDS011;43403;51.948;5.922;2023-07-29T07:40:52;6.47;;;5.75;;
57567;SDS011;43403;51.948;5.922;2023-07-29T07:43:21;9.00;;;6.00;;
57567;SDS011;43403;51.948;5.922;2023-07-29T07:45:48;11.40;;;5.57;;
57567;SDS011;43403;51.948;5.922;2023-07-29T07:48:14;7.57;;;5.60;;
57567;SDS011;43403;51.948;5.922;2023-07-29T07:53:09;7.32;;;6.03;;
57567;SDS011;43403;51.948;5.922;2023-07-29T07:55:36;8.05;;;5.72;;
57567;SDS011;43403;51.948;5.922;2023-07-29T07:58:05;8.38;;;6.07;;
57567;SDS011;43403;51.948;5.922;2023-07-29T08:00:31;9.30;;;5.20;;
57567;SDS011;43403;51.948;5.922;2023-07-29T08:02:58;7.32;;;5.60;;
57567;SDS011;43403;51.948;5.922;2023-07-29T08:05:28;8.65;;;5.72;;
57567;SDS011;43403;51.948;5.922;2023-07-29T08:07:54;7.25;;;5.35;;
57567;SDS011;43403;51.948;5.922;2023-07-29T08:10:23;7.25;;;5.90;;
57567;SDS011;43403;51.948;5.922;2023-07-29T08:12:50;7.20;;;5.20;;
57567;SDS011;43403;51.948;5.922;2023-07-29T08:15:16;6.63;;;5.00;;
57567;SDS011;43403;51.948;5.922;2023-07-29T08:17:43;5.97;;;4.97;;
57567;SDS011;43403;51.948;5.922;2023-07-29T08:20:10;6.63;;;4.65;;
57567;SDS011;43403;51.948;5.922;2023-07-29T08:22:36;6.50;;;4.10;;
57567;SDS011;43403;51.948;5.922;2023-07-29T08:25:03;6.25;;;4.28;;
57567;SDS011;43403;51.948;5.922;2023-07-29T08:27:30;8.27;;;4.32;;
57567;SDS011;43403;51.948;5.922;2023-07-29T08:29:56;4.15;;;3.38;;
57567;SDS011;43403;51.948;5.922;2023-07-29T08:32:23;7.15;;;3.90;;
57567;SDS011;43403;51.948;5.922;2023-07-29T08:34:50;3.97;;;3.13;;
57567;SDS011;43403;51.948;5.922;2023-07-29T08:37:16;3.72;;;2.85;;
57567;SDS011;43403;51.948;5.922;2023-07-29T08:39:43;6.22;;;3.13;;
57567;SDS011;43403;51.948;5.922;2023-07-29T08:42:11;6.18;;;3.28;;
57567;SDS011;43403;51.948;5.922;2023-07-29T08:44:41;4.55;;;3.10;;
57567;SDS011;43403;51.948;5.922;2023-07-29T08:47:09;4.35;;;2.53;;
57567;SDS011;43403;51.948;5.922;2023-07-29T08:49:37;3.83;;;2.42;;
57567;SDS011;43403;51.948;5.922;2023-07-29T08:52:05;5.80;;;3.10;;
57567;SDS011;43403;51.948;5.922;2023-07-29T08:54:32;4.93;;;3.03;;
57567;SDS011;43403;51.948;5.922;2023-07-29T08:56:59;4.28;;;2.92;;
57567;SDS011;43403;51.948;5.922;2023-07-29T08:59:26;4.18;;;3.08;;
57567;SDS011;43403;51.948;5.922;2023-07-29T09:01:55;4.45;;;2.60;;
57567;SDS011;43403;51.948;5.922;2023-07-29T09:04:23;5.25;;;2.92;;
57567;SDS011;43403;51.948;5.922;2023-07-29T09:06:51;4.13;;;2.97;;
57567;SDS011;43403;51.948;5.922;2023-07-29T09:09:20;4.30;;;2.40;;
57567;SDS011;43403;51.948;5.922;2023-07-29T09:11:47;6.13;;;3.30;;
57567;SDS011;43403;51.948;5.922;2023-07-29T09:14:14;3.15;;;2.25;;
57567;SDS011;43403;51.948;5.922;2023-07-29T09:16:41;5.13;;;2.50;;
57567;SDS011;43403;51.948;5.922;2023-07-29T09:19:08;4.40;;;2.35;;
57567;SDS011;43403;51.948;5.922;2023-07-29T09:21:37;5.00;;;2.30;;
57567;SDS011;43403;51.948;5.922;2023-07-29T09:24:05;3.03;;;2.08;;
57567;SDS011;43403;51.948;5.922;2023-07-29T09:29:00;3.73;;;2.20;;
57567;SDS011;43403;51.948;5.922;2023-07-29T09:31:28;6.13;;;2.40;;
57567;SDS011;43403;51.948;5.922;2023-07-29T09:33:55;4.30;;;2.17;;
57567;SDS011;43403;51.948;5.922;2023-07-29T09:36:24;6.30;;;2.20;;
57567;SDS011;43403;51.948;5.922;2023-07-29T09:38:54;3.55;;;2.10;;
57567;SDS011;43403;51.948;5.922;2023-07-29T09:41:23;4.18;;;1.98;;
57567;SDS011;43403;51.948;5.922;2023-07-29T09:43:57;4.00;;;2.10;;
57567;SDS011;43403;51.948;5.922;2023-07-29T09:46:34;5.32;;;2.35;;
57567;SDS011;43403;51.948;5.922;2023-07-29T09:49:03;3.83;;;2.63;;
57567;SDS011;43403;51.948;5.922;2023-07-29T09:51:32;4.28;;;2.40;;
57567;SDS011;43403;51.948;5.922;2023-07-29T09:54:03;4.07;;;2.50;;
57567;SDS011;43403;51.948;5.922;2023-07-29T09:56:30;4.22;;;2.60;;
57567;SDS011;43403;51.948;5.922;2023-07-29T09:58:57;3.80;;;2.13;;
57567;SDS011;43403;51.948;5.922;2023-07-29T10:01:24;5.43;;;2.60;;
57567;SDS011;43403;51.948;5.922;2023-07-29T10:03:51;3.42;;;2.20;;
57567;SDS011;43403;51.948;5.922;2023-07-29T10:06:18;3.07;;;2.10;;
57567;SDS011;43403;51.948;5.922;2023-07-29T10:08:46;3.73;;;2.43;;
57567;SDS011;43403;51.948;5.922;2023-07-29T10:11:15;3.83;;;2.15;;
57567;SDS011;43403;51.948;5.922;2023-07-29T10:13:42;5.00;;;2.47;;
57567;SDS011;43403;51.948;5.922;2023-07-29T10:16:21;4.97;;;2.25;;
57567;SDS011;43403;51.948;5.922;2023-07-29T10:18:49;3.58;;;2.30;;
57567;SDS011;43403;51.948;5.922;2023-07-29T10:21:18;3.88;;;2.60;;
57567;SDS011;43403;51.948;5.922;2023-07-29T10:23:47;2.80;;;2.00;;
57567;SDS011;43403;51.948;5.922;2023-07-29T10:26:16;4.35;;;2.00;;
57567;SDS011;43403;51.948;5.922;2023-07-29T10:28:47;2.72;;;1.92;;
57567;SDS011;43403;51.948;5.922;2023-07-29T10:31:18;3.55;;;2.20;;
57567;SDS011;43403;51.948;5.922;2023-07-29T10:33:46;4.05;;;1.92;;
57567;SDS011;43403;51.948;5.922;2023-07-29T10:36:13;5.60;;;3.00;;
57567;SDS011;43403;51.948;5.922;2023-07-29T10:38:40;5.25;;;2.78;;
57567;SDS011;43403;51.948;5.922;2023-07-29T10:41:07;3.85;;;2.83;;
57567;SDS011;43403;51.948;5.922;2023-07-29T10:43:34;5.32;;;3.20;;
57567;SDS011;43403;51.948;5.922;2023-07-29T10:46:15;4.30;;;3.30;;
57567;SDS011;43403;51.948;5.922;2023-07-29T10:48:55;3.25;;;2.72;;
57567;SDS011;43403;51.948;5.922;2023-07-29T10:51:27;6.78;;;3.13;;
57567;SDS011;43403;51.948;5.922;2023-07-29T10:54:02;3.35;;;2.80;;
57567;SDS011;43403;51.948;5.922;2023-07-29T10:56:36;3.22;;;2.70;;
57567;SDS011;43403;51.948;5.922;2023-07-29T11:01:41;3.58;;;2.50;;
57567;SDS011;43403;51.948;5.922;2023-07-29T11:09:45;6.25;;;2.60;;
57567;SDS011;43403;51.948;5.922;2023-07-29T11:15:18;3.03;;;1.98;;
57567;SDS011;43403;51.948;5.922;2023-07-29T11:17:50;2.72;;;1.80;;
57567;SDS011;43403;51.948;5.922;2023-07-29T11:20:19;2.72;;;1.98;;
57567;SDS011;43403;51.948;5.922;2023-07-29T11:22:47;2.25;;;1.90;;
57567;SDS011;43403;51.948;5.922;2023-07-29T11:25:15;4.17;;;1.87;;
57567;SDS011;43403;51.948;5.922;2023-07-29T11:27:43;2.13;;;1.60;;
57567;SDS011;43403;51.948;5.922;2023-07-29T11:30:10;2.88;;;2.08;;
57567;SDS011;43403;51.948;5.922;2023-07-29T11:32:38;1.90;;;1.70;;
57567;SDS011;43403;51.948;5.922;2023-07-29T11:35:13;3.22;;;2.03;;
57567;SDS011;43403;51.948;5.922;2023-07-29T11:37:43;2.38;;;1.52;;
57567;SDS011;43403;51.948;5.922;2023-07-29T11:40:16;4.30;;;1.90;;
57567;SDS011;43403;51.948;5.922;2023-07-29T11:42:46;4.15;;;2.10;;
57567;SDS011;43403;51.948;5.922;2023-07-29T11:45:15;4.18;;;1.88;;
57567;SDS011;43403;51.948;5.922;2023-07-29T11:47:43;3.70;;;2.10;;
57567;SDS011;43403;51.948;5.922;2023-07-29T11:50:11;3.23;;;1.93;;
57567;SDS011;43403;51.948;5.922;2023-07-29T11:52:42;3.40;;;1.80;;
57567;SDS011;43403;51.948;5.922;2023-07-29T11:55:11;4.07;;;1.95;;
57567;SDS011;43403;51.948;5.922;2023-07-29T11:57:38;5.63;;;2.90;;
57567;SDS011;43403;51.948;5.922;2023-07-29T12:00:06;9.77;;;2.47;;
57567;SDS011;43403;51.948;5.922;2023-07-29T12:02:37;3.97;;;2.60;;
57567;SDS011;43403;51.948;5.922;2023-07-29T12:05:05;3.88;;;2.38;;
57567;SDS011;43403;51.948;5.922;2023-07-29T12:07:33;3.40;;;1.85;;
57567;SDS011;43403;51.948;5.922;2023-07-29T12:10:00;5.57;;;1.60;;
57567;SDS011;43403;51.948;5.922;2023-07-29T12:12:29;3.03;;;1.30;;
57567;SDS011;43403;51.948;5.922;2023-07-29T12:14:56;2.92;;;1.60;;
57567;SDS011;43403;51.948;5.922;2023-07-29T12:17:22;3.50;;;1.48;;
57567;SDS011;43403;51.948;5.922;2023-07-29T12:19:49;4.80;;;1.90;;
57567;SDS011;43403;51.948;5.922;2023-07-29T12:22:20;3.67;;;1.70;;
57567;SDS011;43403;51.948;5.922;2023-07-29T12:24:46;3.17;;;1.50;;
57567;SDS011;43403;51.948;5.922;2023-07-29T12:27:13;3.75;;;1.90;;
57567;SDS011;43403;51.948;5.922;2023-07-29T12:29:42;1.88;;;1.50;;
57567;SDS011;43403;51.948;5.922;2023-07-29T12:34:37;2.10;;;1.60;;
57567;SDS011;43403;51.948;5.922;2023-07-29T12:37:05;5.20;;;1.83;;
57567;SDS011;43403;51.948;5.922;2023-07-29T12:39:34;2.45;;;1.85;;
57567;SDS011;43403;51.948;5.922;2023-07-29T12:42:07;2.80;;;1.58;;
57567;SDS011;43403;51.948;5.922;2023-07-29T12:44:35;2.85;;;1.50;;
57567;SDS011;43403;51.948;5.922;2023-07-29T12:47:03;1.77;;;1.20;;
57567;SDS011;43403;51.948;5.922;2023-07-29T12:49:31;2.47;;;1.52;;
57567;SDS011;43403;51.948;5.922;2023-07-29T12:51:59;2.45;;;1.50;;
57567;SDS011;43403;51.948;5.922;2023-07-29T12:54:25;3.28;;;1.70;;
57567;SDS011;43403;51.948;5.922;2023-07-29T12:56:52;2.90;;;1.73;;
57567;SDS011;43403;51.948;5.922;2023-07-29T12:59:19;3.65;;;1.65;;
57567;SDS011;43403;51.948;5.922;2023-07-29T13:01:45;4.38;;;1.65;;
57567;SDS011;43403;51.948;5.922;2023-07-29T13:04:12;5.20;;;1.67;;
57567;SDS011;43403;51.948;5.922;2023-07-29T13:06:40;2.42;;;2.00;;
57567;SDS011;43403;51.948;5.922;2023-07-29T13:09:06;3.85;;;2.25;;
57567;SDS011;43403;51.948;5.922;2023-07-29T13:11:34;5.65;;;2.58;;
57567;SDS011;43403;51.948;5.922;2023-07-29T13:14:00;4.38;;;2.65;;
57567;SDS011;43403;51.948;5.922;2023-07-29T13:16:30;4.47;;;2.53;;
57567;SDS011;43403;51.948;5.922;2023-07-29T13:18:57;4.15;;;2.92;;
57567;SDS011;43403;51.948;5.922;2023-07-29T13:21:23;3.95;;;2.88;;
57567;SDS011;43403;51.948;5.922;2023-07-29T13:23:51;3.60;;;2.58;;
57567;SDS011;43403;51.948;5.922;2023-07-29T13:26:17;3.10;;;2.40;;
57567;SDS011;43403;51.948;5.922;2023-07-29T13:28:44;3.38;;;2.90;;
57567;SDS011;43403;51.948;5.922;2023-07-29T13:31:10;3.45;;;2.40;;
57567;SDS011;43403;51.948;5.922;2023-07-29T13:33:37;5.30;;;2.50;;
57567;SDS011;43403;51.948;5.922;2023-07-29T13:36:04;4.70;;;2.58;;
57567;SDS011;43403;51.948;5.922;2023-07-29T13:38:31;6.45;;;2.50;;
57567;SDS011;43403;51.948;5.922;2023-07-29T13:40:58;5.18;;;2.58;;
57567;SDS011;43403;51.948;5.922;2023-07-29T13:43:25;3.70;;;2.85;;
57567;SDS011;43403;51.948;5.922;2023-07-29T13:45:51;5.82;;;2.78;;
57567;SDS011;43403;51.948;5.922;2023-07-29T13:48:18;6.00;;;2.85;;
57567;SDS011;43403;51.948;5.922;2023-07-29T13:50:46;3.53;;;2.90;;
57567;SDS011;43403;51.948;5.922;2023-07-29T13:53:12;4.55;;;2.78;;
57567;SDS011;43403;51.948;5.922;2023-07-29T13:55:39;5.18;;;2.63;;
57567;SDS011;43403;51.948;5.922;2023-07-29T13:58:05;3.55;;;2.50;;
57567;SDS011;43403;51.948;5.922;2023-07-29T14:00:32;4.50;;;2.58;;
57567;SDS011;43403;51.948;5.922;2023-07-29T14:02:59;3.42;;;2.15;;
57567;SDS011;43403;51.948;5.922;2023-07-29T14:05:25;3.25;;;2.35;;
57567;SDS011;43403;51.948;5.922;2023-07-29T14:07:52;3.25;;;1.90;;
57567;SDS011;43403;51.948;5.922;2023-07-29T14:10:18;3.20;;;2.22;;
57567;SDS011;43403;51.948;5.922;2023-07-29T14:12:45;3.05;;;2.15;;
57567;SDS011;43403;51.948;5.922;2023-07-29T14:15:11;3.55;;;2.08;;
57567;SDS011;43403;51.948;5.922;2023-07-29T14:17:38;2.35;;;1.83;;
57567;SDS011;43403;51.948;5.922;2023-07-29T14:20:05;2.50;;;1.88;;
57567;SDS011;43403;51.948;5.922;2023-07-29T14:22:32;3.53;;;2.35;;
57567;SDS011;43403;51.948;5.922;2023-07-29T14:24:58;4.55;;;2.22;;
57567;SDS011;43403;51.948;5.922;2023-07-29T14:27:26;2.53;;;2.10;;
57567;SDS011;43403;51.948;5.922;2023-07-29T14:29:53;4.53;;;2.10;;
57567;SDS011;43403;51.948;5.922;2023-07-29T14:32:20;3.03;;;2.30;;
57567;SDS011;43403;51.948;5.922;2023-07-29T14:34:49;3.67;;;2.30;;
57567;SDS011;43403;51.948;5.922;2023-07-29T14:37:16;3.90;;;2.53;;
57567;SDS011;43403;51.948;5.922;2023-07-29T14:39:42;2.90;;;2.10;;
57567;SDS011;43403;51.948;5.922;2023-07-29T14:42:09;2.33;;;2.13;;
57567;SDS011;43403;51.948;5.922;2023-07-29T14:44:35;2.88;;;2.30;;
57567;SDS011;43403;51.948;5.922;2023-07-29T14:47:02;3.05;;;2.20;;
57567;SDS011;43403;51.948;5.922;2023-07-29T14:49:29;3.28;;;2.22;;
57567;SDS011;43403;51.948;5.922;2023-07-29T14:51:55;3.42;;;2.15;;
57567;SDS011;43403;51.948;5.922;2023-07-29T14:54:22;3.03;;;2.20;;
57567;SDS011;43403;51.948;5.922;2023-07-29T14:56:48;3.33;;;2.45;;
57567;SDS011;43403;51.948;5.922;2023-07-29T14:59:15;3.22;;;2.28;;
57567;SDS011;43403;51.948;5.922;2023-07-29T15:01:42;3.70;;;1.88;;
57567;SDS011;43403;51.948;5.922;2023-07-29T15:04:08;2.30;;;2.08;;
57567;SDS011;43403;51.948;5.922;2023-07-29T15:06:35;2.92;;;2.00;;
57567;SDS011;43403;51.948;5.922;2023-07-29T15:09:02;3.65;;;2.10;;
57567;SDS011;43403;51.948;5.922;2023-07-29T15:11:29;3.60;;;2.22;;
57567;SDS011;43403;51.948;5.922;2023-07-29T15:13:56;2.67;;;2.10;;
57567;SDS011;43403;51.948;5.922;2023-07-29T15:16:23;3.35;;;2.20;;